Time;durP1;ratioP1;P1;durP2;ratioP2;P2;SDS_P1;SDS_P2;PMS_P1;PMS_P2;Temp;Humidity;BMP_temperature;BMP_pressure;BME280_temperature;BME280_humidity;BME280_pressure;Samples;Min_cycle;Max_cycle;Signal;HPM_P1;HPM_P2
2022/06/17 00:01:19;;;;;;;26.38;8.30;;;;;;;14.07;77.34;100848.78;5085376;28;20027;-74
2022/06/17 00:03:45;;;;;;;18.23;8.35;;;;;;;14.06;77.78;100851.38;5103168;28;20016;-74
2022/06/17 00:06:12;;;;;;;28.92;9.45;;;;;;;14.06;77.58;100854.00;5107129;28;20021;-73
2022/06/17 00:08:42;;;;;;;21.15;7.75;;;;;;;14.00;77.91;100841.91;5107002;28;20027;-73
2022/06/17 00:11:18;;;;;;;20.75;8.45;;;;;;;14.03;78.06;100847.06;5107185;28;20102;-73
2022/06/17 00:13:43;;;;;;;24.73;8.00;;;;;;;14.01;78.31;100846.22;5107331;28;20080;-73
2022/06/17 00:16:15;;;;;;;22.80;8.68;;;;;;;13.95;78.46;100838.50;5107107;28;20031;-74
2022/06/17 00:18:41;;;;;;;21.83;8.55;;;;;;;13.96;78.53;100841.09;5107067;28;20028;-74
2022/06/17 00:21:19;;;;;;;20.55;7.88;;;;;;;13.97;78.86;100844.56;5106837;28;20495;-74
2022/06/17 00:23:45;;;;;;;21.23;8.35;;;;;;;13.97;78.93;100844.56;5107006;28;20020;-74
2022/06/17 00:26:11;;;;;;;21.23;9.38;;;;;;;13.94;79.10;100840.28;5107106;28;20084;-74
2022/06/17 00:28:36;;;;;;;24.50;8.57;;;;;;;14.03;78.83;100840.97;5106805;28;20020;-74
2022/06/17 00:31:02;;;;;;;32.20;8.88;;;;;;;14.05;78.87;100847.06;5106893;28;20023;-74
2022/06/17 00:33:27;;;;;;;19.40;8.63;;;;;;;14.07;79.10;100840.94;5107290;28;20047;-74
2022/06/17 00:35:54;;;;;;;21.75;9.10;;;;;;;14.07;79.17;100838.31;5106757;28;20035;-74
2022/06/17 00:38:33;;;;;;;23.23;8.20;;;;;;;14.05;79.45;100842.69;5106630;28;20024;-74
2022/06/17 00:41:13;;;;;;;22.23;9.23;;;;;;;14.02;79.90;100840.16;5106674;28;20024;-74
2022/06/17 00:43:40;;;;;;;28.80;8.60;;;;;;;14.02;79.64;100840.16;5106666;28;20020;-74
2022/06/17 00:46:23;;;;;;;24.30;8.52;;;;;;;14.00;80.30;100840.16;5106540;28;20028;-75
2022/06/17 00:48:55;;;;;;;23.10;9.20;;;;;;;13.96;80.45;100840.25;5106367;28;20031;-74
2022/06/17 00:51:22;;;;;;;;;;;;;;;13.98;80.80;100843.66;5106868;28;20039;-74
2022/06/17 00:53:58;;;;;;;29.38;8.10;;;;;;;13.94;80.58;100837.66;5106148;28;19908;-73
2022/06/17 00:56:33;;;;;;;28.20;8.65;;;;;;;13.93;81.16;100850.72;5106257;28;20539;-73
2022/06/17 00:59:08;;;;;;;22.80;8.98;;;;;;;13.96;81.73;100850.69;5106011;28;20080;-73
2022/06/17 01:02:01;;;;;;;25.63;8.32;;;;;;;13.99;81.77;100845.41;5106318;28;20517;-73
2022/06/17 01:04:48;;;;;;;22.20;8.60;;;;;;;13.94;81.90;100837.66;5105930;28;20020;-74
2022/06/17 01:07:37;;;;;;;26.50;8.48;;;;;;;13.93;82.24;100841.13;5106272;28;20034;-73
2022/06/17 01:10:09;;;;;;;28.67;8.23;;;;;;;14.01;81.95;100843.63;5106110;28;20095;-73
2022/06/17 01:12:34;;;;;;;27.63;8.68;;;;;;;14.03;81.77;100848.81;5105906;28;20087;-73
2022/06/17 01:15:00;;;;;;;27.58;8.40;;;;;;;14.02;82.20;100847.97;5106018;28;20024;-74
2022/06/17 01:17:26;;;;;;;23.23;9.07;;;;;;;14.02;82.56;100845.38;5105952;28;20468;-74
2022/06/17 01:19:55;;;;;;;22.10;8.45;;;;;;;13.97;82.69;100839.34;5105495;28;20084;-74
2022/06/17 01:22:26;;;;;;;27.45;9.18;;;;;;;13.98;83.01;100849.75;5105787;28;20035;-68
2022/06/17 01:25:04;;;;;;;28.60;8.63;;;;;;;14.02;82.83;100849.72;5105894;28;20020;-73
2022/06/17 01:27:34;;;;;;;24.77;7.45;;;;;;;14.02;82.72;100844.50;5105666;28;20020;-73
2022/06/17 01:30:00;;;;;;;33.28;9.52;;;;;;;14.00;82.74;100841.91;5105720;28;20039;-72
2022/06/17 01:32:29;;;;;;;28.88;8.85;;;;;;;14.05;83.23;100844.44;5087437;28;20032;-73
2022/06/17 01:34:55;;;;;;;25.55;8.55;;;;;;;14.03;83.11;100843.59;5105216;28;20100;-72
2022/06/17 01:37:21;;;;;;;32.85;8.60;;;;;;;14.05;83.45;100845.31;5105596;28;20563;-72
2022/06/17 01:39:47;;;;;;;30.55;8.05;;;;;;;14.00;84.04;100841.91;5105452;28;20248;-73
2022/06/17 01:42:13;;;;;;;26.23;8.15;;;;;;;14.05;84.13;100849.66;5105551;28;20107;-73
2022/06/17 01:44:41;;;;;;;24.95;8.18;;;;;;;14.06;84.28;100838.31;5105250;28;20571;-74
2022/06/17 01:47:15;;;;;;;27.42;8.70;;;;;;;14.05;84.35;100831.38;5105269;28;20047;-73
2022/06/17 01:49:45;;;;;;;23.85;9.50;;;;;;;14.04;84.18;100829.69;5104872;28;20085;-73
2022/06/17 01:52:35;;;;;;;22.05;8.00;;;;;;;14.06;84.49;100836.59;5105365;28;20031;-73
2022/06/17 01:55:08;;;;;;;25.48;8.60;;;;;;;14.07;84.28;100840.94;5105039;28;20049;-73
2022/06/17 01:57:47;;;;;;;33.13;8.50;;;;;;;14.08;84.39;100847.00;5104856;28;20104;-73
2022/06/17 02:00:25;;;;;;;26.50;8.57;;;;;;;14.09;84.37;100841.75;5104050;28;20496;-73
2022/06/17 02:02:57;;;;;;;24.55;7.68;;;;;;;14.09;84.27;100840.91;5085590;28;20321;-73
2022/06/17 02:05:24;;;;;;;;;;;;;;;14.13;83.94;100843.44;5104244;28;20020;-73
2022/06/17 02:07:54;;;;;;;25.42;7.72;;;;;;;14.08;83.82;100847.00;5103963;28;19911;-72
2022/06/17 02:10:21;;;;;;;27.27;8.50;;;;;;;14.11;83.70;100855.66;5103789;28;20024;-73
2022/06/17 02:12:48;;;;;;;28.23;9.15;;;;;;;14.11;84.01;100852.19;5103862;28;20049;-73
2022/06/17 02:15:14;;;;;;;26.88;9.38;;;;;;;14.10;83.86;100843.50;5103946;28;20032;-73
2022/06/17 02:17:42;;;;;;;33.42;10.05;;;;;;;14.09;83.72;100852.19;5103758;28;20058;-73
2022/06/17 02:20:09;;;;;;;29.13;8.45;;;;;;;14.07;83.88;100847.91;5103350;28;20055;-73
2022/06/17 02:22:35;;;;;;;26.13;8.88;;;;;;;14.07;83.67;100843.56;5103132;28;20096;-73
2022/06/17 02:25:07;;;;;;;25.63;8.73;;;;;;;14.12;83.85;100846.94;5103707;28;20110;-73
2022/06/17 02:27:34;;;;;;;34.13;9.23;;;;;;;14.13;83.70;100846.06;5103139;28;20228;-73
2022/06/17 02:30:02;;;;;;;32.83;8.88;;;;;;;14.13;83.49;100848.66;5103364;28;20028;-73
2022/06/17 02:32:30;;;;;;;34.53;10.93;;;;;;;14.03;83.56;100826.19;5103514;28;20019;-73
2022/06/17 02:35:14;;;;;;;24.10;9.32;;;;;;;14.12;83.88;100836.47;5103336;28;20035;-72
2022/06/17 02:37:40;;;;;;;29.75;9.50;;;;;;;14.14;83.78;100833.84;5103562;28;20012;-72
2022/06/17 02:40:21;;;;;;;26.13;9.70;;;;;;;14.16;83.69;100836.44;5103408;28;20030;-73
2022/06/17 02:42:46;;;;;;;26.75;8.63;;;;;;;14.13;83.65;100843.44;5103576;28;20028;-72
2022/06/17 02:45:17;;;;;;;25.95;9.25;;;;;;;14.14;83.86;100844.28;5103323;28;20130;-74
2022/06/17 02:47:44;;;;;;;22.58;9.10;;;;;;;14.15;83.98;100842.56;5103565;28;20024;-73
2022/06/17 02:50:36;;;;;;;27.35;8.40;;;;;;;14.18;83.99;100847.72;5102932;28;20028;-72
2022/06/17 02:53:01;;;;;;;25.55;8.75;;;;;;;14.22;83.81;100845.03;5099246;28;20040;-73
2022/06/17 02:55:38;;;;;;;29.50;9.65;;;;;;;14.22;83.93;100841.56;5103153;28;20085;-73
2022/06/17 02:58:21;;;;;;;21.98;8.18;;;;;;;14.27;83.93;100838.84;5045509;28;1120527;-73
2022/06/17 03:00:46;;;;;;;22.27;7.22;;;;;;;14.32;83.73;100843.13;5103810;28;20051;-73
2022/06/17 03:03:15;;;;;;;29.70;8.35;;;;;;;14.34;83.72;100840.50;5103890;28;20020;-72
2022/06/17 03:05:44;;;;;;;27.42;7.07;;;;;;;14.44;83.64;100849.03;5103695;28;20024;-73
2022/06/17 03:08:19;;;;;;;19.05;6.93;;;;;;;14.56;83.94;100845.34;5103648;28;20069;-73
2022/06/17 03:10:45;;;;;;;26.30;7.00;;;;;;;14.83;85.13;100849.22;5103744;28;20032;-73
2022/06/17 03:13:18;;;;;;;18.38;6.60;;;;;;;15.18;85.39;100851.16;5103589;28;20049;-73
2022/06/17 03:15:46;;;;;;;23.10;6.82;;;;;;;15.60;84.83;100834.56;5103878;28;20016;-74
2022/06/17 03:18:12;;;;;;;19.80;5.68;;;;;;;16.14;83.91;100836.84;5103303;28;20016;-73
2022/06/17 03:20:40;;;;;;;12.80;5.03;;;;;;;16.63;81.22;100836.47;5103332;28;20397;-73
2022/06/17 03:23:17;;;;;;;20.42;5.43;;;;;;;17.14;79.25;100837.69;5104089;28;20016;-73
2022/06/17 03:25:46;;;;;;;18.27;5.18;;;;;;;17.64;77.50;100835.34;5103635;28;20041;-73
2022/06/17 03:28:16;;;;;;;14.68;5.07;;;;;;;18.06;75.34;100834.91;5103266;28;20032;-72
2022/06/17 03:31:07;;;;;;;16.55;5.15;;;;;;;18.46;74.21;100829.22;5103438;28;20054;-74
2022/06/17 03:33:38;;;;;;;16.52;5.95;;;;;;;18.99;72.32;100843.13;5102944;28;20095;-73
2022/06/17 03:36:24;;;;;;;18.27;5.32;;;;;;;19.38;70.72;100817.16;5103296;28;20028;-73
2022/06/17 03:38:55;;;;;;;21.00;5.55;;;;;;;19.74;67.01;100827.16;5102377;28;20020;-73
2022/06/17 03:41:29;;;;;;;15.18;5.53;;;;;;;19.97;65.55;100827.97;5103451;28;20047;-73
2022/06/17 03:44:02;;;;;;;14.45;4.72;;;;;;;20.15;64.15;100826.41;5103327;28;20032;-73
2022/06/17 03:46:35;;;;;;;16.05;5.20;;;;;;;20.43;62.70;100827.00;5103569;28;20031;-73
2022/06/17 03:49:07;;;;;;;21.20;4.65;;;;;;;20.63;61.89;100827.88;5103161;28;20096;-73
2022/06/17 03:51:36;;;;;;;13.65;4.65;;;;;;;20.80;60.52;100822.72;5103038;28;20024;-73
2022/06/17 03:54:01;;;;;;;17.00;4.70;;;;;;;21.06;60.38;100833.03;5103345;28;20085;-74
2022/06/17 03:56:39;;;;;;;16.70;5.20;;;;;;;21.36;58.36;100839.63;5103233;28;20028;-73
2022/06/17 03:59:07;;;;;;;17.30;4.55;;;;;;;21.57;58.42;100829.81;5103088;28;20101;-73
2022/06/17 04:01:39;;;;;;;12.43;4.35;;;;;;;21.85;58.19;100844.38;5103323;28;20236;-72
2022/06/17 04:04:13;;;;;;;13.77;4.60;;;;;;;22.18;56.89;100840.09;5103159;28;20103;-72
2022/06/17 04:06:41;;;;;;;14.52;4.72;;;;;;;22.54;55.97;100849.72;5103246;28;20026;-72
2022/06/17 04:09:22;;;;;;;14.02;4.25;;;;;;;22.75;54.92;100859.28;5102864;28;20028;-72
2022/06/17 04:11:50;;;;;;;13.90;4.50;;;;;;;22.99;53.15;100861.53;5103431;28;20024;-72
2022/06/17 04:14:21;;;;;;;8.30;3.65;;;;;;;23.03;52.77;100877.19;5102892;28;20020;-73
2022/06/17 04:16:59;;;;;;;20.65;5.53;;;;;;;23.18;52.74;100864.06;5102953;28;20031;-73
2022/06/17 04:19:27;;;;;;;16.48;4.93;;;;;;;23.53;52.96;100876.34;5102732;28;20039;-73
2022/06/17 04:21:59;;;;;;;15.57;4.13;;;;;;;23.92;51.08;100866.19;5103153;28;20027;-73
2022/06/17 04:24:27;;;;;;;11.60;4.15;;;;;;;24.08;50.23;100866.16;5102950;28;20035;-73
2022/06/17 04:26:59;;;;;;;13.40;4.10;;;;;;;24.11;49.55;100857.16;5102982;28;20439;-72
2022/06/17 04:29:38;;;;;;;15.88;4.03;;;;;;;24.40;49.67;100862.56;5102753;28;20024;-73
2022/06/17 04:32:39;;;;;;;16.23;4.00;;;;;;;24.37;48.06;100857.44;5103003;28;20030;-73
2022/06/17 04:35:11;;;;;;;12.43;3.92;;;;;;;24.13;48.82;100869.41;5057626;28;20032;-71
2022/06/17 04:37:38;;;;;;;15.63;4.25;;;;;;;24.22;48.38;100877.78;5103276;28;20479;-76
2022/06/17 04:40:04;;;;;;;15.52;4.45;;;;;;;24.15;48.23;100874.66;5102667;28;20322;-70
2022/06/17 04:42:40;;;;;;;9.43;3.63;;;;;;;24.35;48.42;100868.16;5102741;28;20023;-70
2022/06/17 04:45:18;;;;;;;11.23;3.80;;;;;;;24.60;48.54;100865.84;5102840;28;20024;-72
2022/06/17 04:47:43;;;;;;;12.73;3.72;;;;;;;24.81;47.41;100860.16;5102921;28;20024;-73
2022/06/17 04:50:13;;;;;;;14.23;3.63;;;;;;;25.00;46.58;100860.72;5103168;28;20035;-71
2022/06/17 04:52:42;;;;;;;14.68;4.10;;;;;;;24.87;46.46;100857.94;5088257;28;20020;-68
2022/06/17 04:55:28;;;;;;;13.35;4.05;;;;;;;24.96;46.71;100861.88;5106372;28;20111;-73
2022/06/17 04:57:54;;;;;;;10.20;3.90;;;;;;;25.29;46.30;100856.34;5105961;28;20074;-69
2022/06/17 05:00:25;;;;;;;13.68;3.92;;;;;;;25.69;45.59;100859.09;5106211;28;20066;-73
2022/06/17 05:02:52;;;;;;;13.52;4.50;;;;;;;26.17;44.49;100859.53;5106318;28;20034;-75
2022/06/17 05:05:35;;;;;;;15.80;4.22;;;;;;;26.10;43.73;100867.91;5087562;28;20020;-72
2022/06/17 05:08:05;;;;;;;14.13;4.30;;;;;;;25.98;43.92;100874.94;5105816;28;20063;-71
2022/06/17 05:10:35;;;;;;;13.35;4.60;;;;;;;25.97;43.73;100878.56;5105671;28;20032;-68
2022/06/17 05:13:15;;;;;;;11.15;3.78;;;;;;;25.93;43.81;100876.19;5105835;28;20028;-69
2022/06/17 05:15:41;;;;;;;10.65;3.55;;;;;;;25.94;43.30;100880.56;5105931;28;20454;-69
2022/06/17 05:18:06;;;;;;;12.02;3.83;;;;;;;25.78;43.96;100868.28;5106152;28;20012;-69
2022/06/17 05:20:31;;;;;;;13.00;3.63;;;;;;;26.08;43.80;100874.31;5105884;28;20020;-70
2022/06/17 05:23:05;;;;;;;10.82;3.53;;;;;;;26.40;42.60;100873.97;5105941;28;20023;-70
2022/06/17 05:25:34;;;;;;;12.20;3.80;;;;;;;26.53;42.77;100878.44;5105788;28;20028;-69
2022/06/17 05:28:00;;;;;;;11.02;4.18;;;;;;;26.80;42.41;100885.47;5105812;28;20012;-70
2022/06/17 05:30:30;;;;;;;11.38;4.05;;;;;;;26.98;40.95;100884.16;5105557;28;20369;-70
2022/06/17 05:32:56;;;;;;;12.63;4.00;;;;;;;27.12;41.38;100890.38;5105821;28;20024;-68
2022/06/17 05:35:22;;;;;;;15.82;3.58;;;;;;;27.57;41.09;100894.31;5105579;28;20031;-69
2022/06/17 05:37:48;;;;;;;12.70;4.07;;;;;;;28.20;39.80;100888.78;5105364;28;20095;-73
2022/06/17 05:40:14;;;;;;;11.10;3.83;;;;;;;28.80;38.74;100889.63;5105345;28;20055;-73
2022/06/17 05:42:41;;;;;;;7.32;3.08;;;;;;;28.85;37.27;100879.41;5104696;28;20020;-73
2022/06/17 05:45:08;;;;;;;9.30;3.65;;;;;;;28.86;37.58;100878.47;5104871;28;20026;-73
2022/06/17 05:47:33;;;;;;;7.97;3.17;;;;;;;28.97;37.31;100882.13;5104843;28;20047;-73
2022/06/17 05:49:58;;;;;;;8.93;3.67;;;;;;;28.98;37.39;100890.00;5104321;28;20024;-72
2022/06/17 05:52:24;;;;;;;7.47;2.72;;;;;;;29.06;36.97;100884.91;5104657;28;20419;-72
2022/06/17 05:54:50;;;;;;;7.85;3.05;;;;;;;29.13;36.76;100881.75;5104785;28;20055;-72
2022/06/17 05:57:16;;;;;;;7.43;3.28;;;;;;;29.14;36.30;100883.47;5087035;28;20295;-72
2022/06/17 05:59:41;;;;;;;9.18;3.00;;;;;;;29.19;35.75;100884.78;5105003;28;20044;-72
2022/06/17 06:02:09;;;;;;;8.98;2.95;;;;;;;28.93;36.67;100895.69;5104125;28;20359;-72
2022/06/17 06:04:34;;;;;;;11.05;3.45;;;;;;;28.90;36.57;100884.41;5104676;28;20023;-72
2022/06/17 06:07:00;;;;;;;9.25;3.17;;;;;;;28.80;36.73;100886.97;5104977;28;20034;-73
2022/06/17 06:09:26;;;;;;;10.68;3.28;;;;;;;28.75;36.50;100891.81;5086654;28;20024;-72
2022/06/17 06:11:52;;;;;;;7.65;2.72;;;;;;;28.60;36.80;100876.00;5105149;28;20030;-72
2022/06/17 06:14:17;;;;;;;9.13;3.00;;;;;;;28.47;36.37;100881.44;5086649;28;20024;-72
2022/06/17 06:16:43;;;;;;;11.27;2.92;;;;;;;28.55;36.39;100873.69;5104903;28;20028;-72
2022/06/17 06:19:08;;;;;;;9.23;2.80;;;;;;;28.69;36.70;100880.63;5104598;28;20098;-72
2022/06/17 06:21:34;;;;;;;7.47;2.58;;;;;;;28.78;35.97;100876.41;5104437;28;20024;-73
2022/06/17 06:23:59;;;;;;;7.68;2.97;;;;;;;28.69;35.99;100879.78;5086513;28;20480;-72
2022/06/17 06:26:25;;;;;;;8.65;3.53;;;;;;;28.26;36.47;100887.44;5104681;28;20492;-72
2022/06/17 06:28:50;;;;;;;8.65;2.90;;;;;;;28.29;36.59;100887.22;5104379;28;20024;-73
2022/06/17 06:31:30;;;;;;;7.07;3.10;;;;;;;28.27;36.38;100886.50;5086317;28;20028;-73
2022/06/17 06:33:56;;;;;;;5.47;2.58;;;;;;;28.24;36.92;100901.88;5086240;28;20039;-73
2022/06/17 06:36:21;;;;;;;11.20;3.05;;;;;;;27.88;37.31;100891.19;5104149;28;20039;-73
2022/06/17 06:38:47;;;;;;;9.88;3.35;;;;;;;27.70;37.53;100905.78;5104342;28;20464;-73
2022/06/17 06:41:13;;;;;;;9.57;3.75;;;;;;;27.68;38.36;100918.41;5104411;28;20019;-73
2022/06/17 06:43:39;;;;;;;8.10;3.05;;;;;;;27.65;37.75;100913.25;5104246;28;20024;-72
2022/06/17 06:46:12;;;;;;;10.93;3.78;;;;;;;27.51;38.71;100914.25;5085606;28;20031;-72
2022/06/17 06:48:39;;;;;;;7.95;3.13;;;;;;;27.46;38.74;100906.59;5103971;28;20024;-72
2022/06/17 06:51:04;;;;;;;10.30;3.13;;;;;;;27.35;38.42;100917.16;5103719;28;20031;-73
2022/06/17 06:53:30;;;;;;;11.18;3.95;;;;;;;27.02;39.18;100910.63;5085764;28;20047;-73
2022/06/17 06:55:55;;;;;;;11.07;2.92;;;;;;;27.14;39.59;100917.75;5103907;28;20438;-73
2022/06/17 06:58:24;;;;;;;8.65;3.75;;;;;;;27.25;38.78;100918.81;5103677;28;20082;-73
2022/06/17 07:00:52;;;;;;;9.18;3.20;;;;;;;26.87;39.27;100916.03;5104068;28;20031;-72
2022/06/17 07:03:19;;;;;;;12.68;3.72;;;;;;;26.76;39.79;100921.28;5103937;28;20031;-73
2022/06/17 07:05:48;;;;;;;11.00;3.78;;;;;;;27.04;39.81;100922.91;5103826;28;20027;-73
2022/06/17 07:08:15;;;;;;;14.02;3.42;;;;;;;27.29;38.94;100923.81;5103812;28;20016;-73
2022/06/17 07:10:42;;;;;;;7.57;3.30;;;;;;;27.20;38.85;100920.00;5085451;28;20024;-66
2022/06/17 07:13:08;;;;;;;9.18;3.53;;;;;;;27.18;39.30;100927.25;5103908;28;20052;-71
2022/06/17 07:15:36;;;;;;;8.85;4.03;;;;;;;27.33;39.38;100917.28;5103915;28;20024;-65
2022/06/17 07:18:06;;;;;;;5.88;2.75;;;;;;;27.70;39.01;100918.28;5104086;28;20046;-64
2022/06/17 07:20:42;;;;;;;8.52;3.22;;;;;;;28.03;37.74;100922.09;5103191;28;20046;-69
2022/06/17 07:23:10;;;;;;;9.95;3.30;;;;;;;28.37;37.14;100918.69;5103889;28;20434;-69
2022/06/17 07:25:35;;;;;;;8.13;3.67;;;;;;;28.83;36.67;100918.78;5085507;28;20047;-70
2022/06/17 07:28:01;;;;;;;9.75;3.08;;;;;;;29.23;35.63;100930.84;5103780;28;20051;-71
2022/06/17 07:30:28;;;;;;;11.50;3.67;;;;;;;29.58;34.80;100929.00;5103436;28;20036;-70
2022/06/17 07:32:53;;;;;;;14.07;3.65;;;;;;;29.76;34.15;100925.78;5103858;28;20035;-70
2022/06/17 07:35:19;;;;;;;9.80;3.13;;;;;;;29.61;34.37;100928.72;5103462;28;20027;-69
2022/06/17 07:40:31;;;;;;;14.48;3.53;;;;;;;29.02;35.29;100928.03;5103387;28;20058;-77
2022/06/17 07:42:57;;;;;;;6.53;2.90;;;;;;;28.70;35.55;100930.44;5103361;28;20034;-77
2022/06/17 07:45:26;;;;;;;9.98;3.03;;;;;;;28.64;36.24;100936.25;5103571;28;20023;-76
2022/06/17 07:47:53;;;;;;;8.93;3.97;;;;;;;28.52;36.30;100934.50;5103432;28;20499;-76
2022/06/17 07:50:23;;;;;;;10.00;3.50;;;;;;;28.61;36.58;100925.78;5103003;28;20028;-76
2022/06/17 07:52:48;;;;;;;15.30;3.47;;;;;;;28.86;36.11;100923.03;5103315;28;20039;-76
2022/06/17 07:55:15;;;;;;;10.60;3.60;;;;;;;29.08;35.69;100927.56;5103495;28;20028;-76
2022/06/17 07:57:42;;;;;;;10.25;4.00;;;;;;;29.24;35.34;100929.00;5103277;28;20016;-76
2022/06/17 08:00:12;;;;;;;7.90;3.80;;;;;;;29.43;34.74;100921.19;5085054;28;20028;-75
2022/06/17 08:02:38;;;;;;;10.07;3.15;;;;;;;29.53;34.65;100925.78;5103422;28;20090;-75
2022/06/17 08:05:03;;;;;;;8.63;3.58;;;;;;;29.62;33.71;100924.25;5084791;28;20483;-75
2022/06/17 08:07:29;;;;;;;7.55;2.80;;;;;;;29.70;33.78;100924.44;5103138;28;20020;-75
2022/06/17 08:09:54;;;;;;;10.07;2.90;;;;;;;29.53;33.03;100937.34;5103024;28;20046;-76
2022/06/17 08:12:20;;;;;;;8.43;3.00;;;;;;;29.30;33.52;100920.47;5103378;28;20035;-75
2022/06/17 08:14:46;;;;;;;8.85;3.15;;;;;;;29.48;33.51;100926.16;5103435;28;20065;-75
2022/06/17 08:17:13;;;;;;;13.60;3.22;;;;;;;29.57;33.79;100924.56;5103080;28;20023;-75
2022/06/17 08:19:40;;;;;;;9.55;2.70;;;;;;;29.71;33.43;100926.16;5102788;28;20012;-76
2022/06/17 08:22:05;;;;;;;8.07;3.33;;;;;;;29.74;33.42;100917.88;5103312;28;20111;-76
2022/06/17 08:24:30;;;;;;;6.10;2.67;;;;;;;29.80;32.82;100921.84;5103108;28;20035;-75
2022/06/17 08:26:56;;;;;;;4.45;2.35;;;;;;;29.97;33.16;100920.44;5106517;28;20064;-75
2022/06/17 08:29:22;;;;;;;5.97;3.10;;;;;;;30.16;32.06;100921.59;5106827;28;20030;-76
2022/06/17 08:31:48;;;;;;;9.85;3.47;;;;;;;30.06;32.33;100926.88;5088298;28;20020;-76
2022/06/17 08:34:13;;;;;;;4.97;2.78;;;;;;;30.29;32.41;100921.41;5106506;28;20324;-76
2022/06/17 08:36:39;;;;;;;6.38;2.92;;;;;;;30.63;31.77;100921.22;5106453;28;20087;-76
2022/06/17 08:39:07;;;;;;;7.53;2.70;;;;;;;30.83;31.93;100924.03;5106749;28;20024;-75
2022/06/17 08:41:36;;;;;;;6.50;3.30;;;;;;;31.17;31.02;100937.16;5106833;28;20028;-75
2022/06/17 08:44:40;;;;;;;10.98;2.80;;;;;;;31.18;30.90;100932.66;5106846;28;20024;-75
2022/06/17 08:47:14;;;;;;;7.47;3.22;;;;;;;31.09;31.36;100939.66;5023845;28;20057;-75
2022/06/17 08:50:11;;;;;;;7.15;2.58;;;;;;;31.39;31.05;100937.94;5023315;28;20038;-75
2022/06/17 08:52:55;;;;;;;10.00;3.58;;;;;;;31.60;30.29;100937.00;5023654;28;20032;-76
2022/06/17 08:55:42;;;;;;;9.07;3.30;;;;;;;31.76;30.39;100949.00;5023603;28;20034;-76
2022/06/17 08:58:13;;;;;;;5.53;2.97;;;;;;;31.78;30.61;100947.91;5023620;28;20080;-77
2022/06/17 09:00:53;;;;;;;;;;;;;;;31.51;30.58;100951.25;5023860;28;20030;-75
2022/06/17 09:03:45;;;;;;;10.70;4.20;;;;;;;31.49;30.65;100953.22;5023795;28;19940;-76
2022/06/17 09:06:32;;;;;;;7.78;3.05;;;;;;;31.56;30.75;100949.00;5018015;28;20099;-77
2022/06/17 09:09:09;;;;;;;8.02;3.35;;;;;;;31.60;30.43;100952.28;5023129;28;20084;-77
2022/06/17 09:12:08;;;;;;;8.32;3.50;;;;;;;31.38;30.75;100948.81;5023611;28;20034;-76
2022/06/17 09:14:33;;;;;;;8.95;3.40;;;;;;;31.61;29.82;100952.13;5023314;28;20042;-76
2022/06/17 09:17:10;;;;;;;5.35;2.80;;;;;;;31.29;29.51;100954.00;5023335;28;20022;-76
2022/06/17 09:19:40;;;;;;;6.60;2.63;;;;;;;30.91;30.04;100951.00;5022820;28;20088;-75
2022/06/17 09:22:25;;;;;;;11.27;3.28;;;;;;;30.38;30.56;100950.13;5098409;28;20050;-75
2022/06/17 09:24:52;;;;;;;6.32;2.70;;;;;;;30.15;31.44;100960.03;5105994;28;20042;-76
2022/06/17 09:27:26;;;;;;;11.82;3.10;;;;;;;30.17;31.14;100955.41;5106031;28;20026;-75
2022/06/17 09:30:03;;;;;;;6.60;3.03;;;;;;;30.21;31.21;100932.78;5087548;28;20016;-75
2022/06/17 09:32:57;;;;;;;9.35;3.65;;;;;;;30.15;31.14;100944.84;5106503;28;20024;-76
2022/06/17 09:35:35;;;;;;;5.93;2.50;;;;;;;29.79;31.63;100949.59;5087534;28;20043;-76
2022/06/17 09:38:25;;;;;;;7.22;2.65;;;;;;;29.46;32.57;100951.34;5105719;28;20012;-75
2022/06/17 09:41:07;;;;;;;6.65;3.10;;;;;;;29.43;32.66;100942.59;5105658;28;20065;-75
2022/06/17 09:43:38;;;;;;;10.65;3.20;;;;;;;29.56;32.43;100952.28;5105667;28;20031;-74
2022/06/17 09:46:25;;;;;;;6.15;2.72;;;;;;;29.47;32.67;100953.03;5105585;28;20034;-74
2022/06/17 09:49:08;;;;;;;7.60;2.85;;;;;;;29.32;32.85;100958.66;5087116;28;20024;-70
2022/06/17 09:51:43;;;;;;;5.70;2.65;;;;;;;29.12;32.27;100953.09;5105282;28;20099;-72
2022/06/17 09:54:30;;;;;;;5.70;3.10;;;;;;;28.95;32.78;100955.25;5105520;28;20031;-73
2022/06/17 09:57:01;;;;;;;7.53;3.22;;;;;;;28.96;33.11;100950.75;5105262;28;20415;-69
2022/06/17 09:59:36;;;;;;;7.25;2.50;;;;;;;28.98;32.35;100950.66;5105079;28;20067;-69
2022/06/17 10:02:13;;;;;;;5.03;2.67;;;;;;;28.88;31.97;100958.50;5105167;28;20030;-72
2022/06/17 10:04:39;;;;;;;4.25;2.70;;;;;;;28.54;32.83;100951.25;5105023;28;20078;-73
2022/06/17 10:07:16;;;;;;;5.45;2.22;;;;;;;28.29;33.46;100966.47;5104941;28;20020;-76
2022/06/17 10:09:57;;;;;;;6.82;2.90;;;;;;;28.31;34.02;100953.81;5105058;28;20352;-73
2022/06/17 10:12:39;;;;;;;6.43;2.90;;;;;;;28.55;33.18;100955.63;5105118;28;20028;-69
2022/06/17 10:15:39;;;;;;;6.00;2.40;;;;;;;28.38;33.65;100954.25;5104972;28;20020;-69
2022/06/17 10:18:31;;;;;;;4.65;2.28;;;;;;;28.28;33.50;100967.41;5105010;28;20050;-68
2022/06/17 10:21:29;;;;;;;5.07;2.25;;;;;;;27.86;34.21;100963.34;5104576;28;20074;-68
2022/06/17 10:24:36;;;;;;;6.40;2.25;;;;;;;27.70;34.09;100964.47;5098737;28;20062;-68
2022/06/17 10:27:20;;;;;;;7.13;3.10;;;;;;;27.49;35.00;100955.31;5093358;28;20252;-68
2022/06/17 10:30:01;;;;;;;5.63;2.60;;;;;;;27.42;34.59;100958.44;5104517;28;20028;-68
2022/06/17 10:32:29;;;;;;;4.32;2.15;;;;;;;27.19;35.23;100963.56;5104549;28;20031;-68
2022/06/17 10:35:01;;;;;;;8.57;2.70;;;;;;;26.73;35.83;100960.47;5104089;28;20043;-67
2022/06/17 10:37:30;;;;;;;4.28;1.90;;;;;;;26.48;36.44;100956.81;5104516;28;20012;-68
2022/06/17 10:39:56;;;;;;;4.65;2.00;;;;;;;26.43;36.79;100968.72;5104315;28;20020;-68
2022/06/17 10:42:24;;;;;;;10.02;2.33;;;;;;;26.33;36.71;100957.84;5104467;28;20502;-68
2022/06/17 10:44:53;;;;;;;4.13;1.67;;;;;;;26.23;36.25;100977.06;5104335;28;20055;-67
2022/06/17 10:47:31;;;;;;;5.30;1.90;;;;;;;25.93;37.29;100977.25;5085886;28;20020;-68
2022/06/17 10:50:03;;;;;;;4.13;1.88;;;;;;;25.81;37.14;100977.09;5103607;28;20027;-69
2022/06/17 10:52:40;;;;;;;6.65;1.85;;;;;;;25.78;37.78;100985.28;5086165;28;20034;-69
2022/06/17 10:55:16;;;;;;;6.78;2.33;;;;;;;25.68;37.71;100981.50;5104507;28;20359;-67
2022/06/17 10:58:04;;;;;;;5.25;1.55;;;;;;;25.51;37.71;100988.72;5103929;28;20020;-68
2022/06/17 11:00:30;;;;;;;3.10;1.50;;;;;;;25.36;38.00;100972.78;5104052;28;20028;-68
2022/06/17 11:02:55;;;;;;;4.50;1.63;;;;;;;25.11;38.51;100965.47;5103951;28;20407;-68
2022/06/17 11:05:34;;;;;;;4.10;1.80;;;;;;;24.85;39.21;100973.19;5103642;28;20479;-68
2022/06/17 11:08:00;;;;;;;4.70;1.50;;;;;;;24.70;40.42;100959.00;5104121;28;20034;-68
2022/06/17 11:10:29;;;;;;;5.28;1.85;;;;;;;24.84;40.24;100966.16;5085645;28;20042;-68
2022/06/17 11:13:00;;;;;;;5.32;1.90;;;;;;;24.71;39.67;100964.22;5103815;28;20023;-68
2022/06/17 11:15:30;;;;;;;4.75;1.65;;;;;;;24.47;39.89;100970.03;5103924;28;20019;-69
2022/06/17 11:18:04;;;;;;;3.38;1.45;;;;;;;24.16;39.97;100971.84;5103886;28;20027;-68
2022/06/17 11:20:33;;;;;;;6.20;1.58;;;;;;;23.93;40.84;100966.00;5103463;28;20095;-67
2022/06/17 11:23:04;;;;;;;4.30;1.63;;;;;;;23.89;40.95;100965.34;5103705;28;20020;-68
2022/06/17 11:25:34;;;;;;;3.97;1.67;;;;;;;23.80;40.82;100976.47;5103783;28;20046;-67
2022/06/17 11:28:22;;;;;;;5.78;1.67;;;;;;;23.76;40.71;100967.81;5103792;28;20079;-68
2022/06/17 11:31:06;;;;;;;4.00;1.67;;;;;;;23.69;40.81;100961.13;5103561;28;20023;-67
2022/06/17 11:33:40;;;;;;;4.10;1.50;;;;;;;23.79;40.42;100966.78;5103671;28;20357;-68
2022/06/17 11:36:15;;;;;;;4.10;1.48;;;;;;;23.61;40.17;100981.91;5103388;28;20030;-68
2022/06/17 11:38:40;;;;;;;3.67;1.83;;;;;;;23.49;40.87;100967.53;5103491;28;20018;-68
2022/06/17 11:41:06;;;;;;;5.38;1.38;;;;;;;23.50;41.18;100974.53;5103441;28;20028;-68
2022/06/17 11:43:38;;;;;;;4.00;1.60;;;;;;;23.61;41.22;100985.41;5103585;28;20027;-68
2022/06/17 11:46:17;;;;;;;4.55;1.40;;;;;;;23.61;40.93;100966.84;5103463;28;20020;-68